NCAR-RAP Real-Time Weather Data

Output produced by METARs form (12 August 2020  17:48 UTC)
found at http://weather.rap.ucar.edu/surface/
 
KSAV 121253Z 27004KT 10SM FEW030 SCT150 BKN250 26/23 A3002 RMK AO2 SLP165 T02560233 $
KSAV 121153Z 25003KT 10SM FEW070 SCT160 BKN250 24/23 A3002 RMK AO2 SLP165 CB DSNT E T02440228 10250 20239 $
KSAV 121053Z 19003KT 10SM SCT055CB BKN110 BKN250 24/23 A3001 RMK AO2 SLP162 CB E AND DSNT NE T02390228 $
KSAV 120953Z 25005KT 10SM FEW055 SCT110 24/23 A2999 RMK AO2 SLP156 T02440228
KSAV 120853Z 23003KT 10SM CLR 24/23 A2998 RMK AO2 SLP150 T02440233 55002
KSAV 120753Z 24006KT 10SM CLR 24/23 A2997 RMK AO2 SLP149 T02440233
KSAV 120653Z 00000KT 10SM CLR 24/23 A2997 RMK AO2 SLP147 T02440233
KSAV 120553Z 25003KT 10SM CLR 25/23 A2998 RMK AO2 SLP152 T02500233 10289 20250 56007
KSAV 120453Z 26003KT 10SM CLR 25/23 A2999 RMK AO2 SLP154 T02500228 403390233
KSAV 120353Z 00000KT 10SM FEW048 SCT080 BKN150 26/23 A2999 RMK AO2 SLP154 LAST T02610228
KSAV 120253Z 25005KT 10SM FEW020 SCT048 BKN080 BKN150 26/23 A3001 RMK AO2 SLP160 T02610233 51016
KSAV 120153Z 32006KT 10SM SCT020 SCT048 27/23 A3000 RMK AO2 SLP156 T02670233
KSAV 120053Z 27008KT 10SM SCT022 SCT048 BKN095 27/22 A2998 RMK AO2 SLP151 T02720222
KSAV 112353Z 18011KT 10SM SCT046 SCT080 BKN180 29/24 A2996 RMK AO2 SLP144 60000 T02890244 10339 20289 53009
KSAV 112253Z 15012KT 10SM FEW042 SCT055 BKN080 BKN180 31/26 A2993 RMK AO2 RAE06 SLP134 P0000 T03060256
KSAV 112201Z 15012KT 5SM -RA BKN075 OVC090 31/27 A2993 RMK AO2 P0000 T03060267
KSAV 112153Z COR 15015KT 10SM -RA SCT040 SCT050 BKN085 32/26 A2993 RMK AO2 RAB51 SLP133 P0000 T03170256
KSAV 112053Z VRB03KT 10SM BKN046 BKN170 34/24 A2993 RMK AO2 SLP135 T03390239 56023
KSAV 111953Z VRB05KT 10SM BKN046 BKN170 34/23 A2995 RMK AO2 SLP142 T03390233
KSAV 111853Z VRB03KT 10SM SCT046 SCT060 BKN170 33/24 A2997 RMK AO2 SLP149 T03280239
KSAV 111753Z VRB03KT 10SM FEW035 SCT060 SCT170 32/24 A3000 RMK AO2 SLP158 6//// T03220239 10328 20244 58014 PNO $
KSAV 111653Z 00000KT 10SM FEW025 FEW170 SCT250 31/23 A3002 RMK AO2 SLP164 T03110233 PNO $
KSAV 111553Z 26004KT 10SM FEW025 BKN170 29/23 A3003 RMK AO2 SLP168 T02940233 PNO $
KSAV 111453Z 26004KT 10SM FEW020 BKN160 27/23 A3004 RMK AO2 SLP172 T02720233 50005 $
KSAV 111353Z 26004KT 8SM FEW070 BKN160 26/23 A3005 RMK AO2 SLP175 T02610233
KSAV 111253Z 00000KT 10SM FEW130 BKN150 25/23 A3004 RMK AO2 SLP171 T02500233
KSAV 111153Z 23003KT 10SM OVC150 24/23 A3003 RMK AO2 SLP167 T02440228 10250 20233 52013
KSAV 111053Z 00000KT 10SM FEW060 BKN160 BKN250 24/22 A3002 RMK AO2 SLP165 T02390222
KSAV 110953Z 26004KT 10SM SCT150 BKN250 23/23 A3000 RMK AO2 SLP157 T02330228
KSAV 110853Z AUTO 26005KT 10SM CLR 24/23 A2999 RMK AO2 SLP155 T02390228 56017
KSAV 110753Z AUTO 25005KT 10SM CLR 24/23 A3000 RMK AO2 SLP157 T02440228
KSAV 110653Z AUTO 26005KT 10SM CLR 24/23 A3002 RMK AO2 SLP165 T02440228
KSAV 110553Z AUTO 20004KT 10SM CLR 25/23 A3004 RMK AO2 SLP172 T02500228 10278 20250 50013
KSAV 110453Z AUTO 24003KT 10SM CLR 25/23 A3005 RMK AO2 SLP174 T02500228 403440228
KSAV 110353Z 01003KT 10SM FEW055 FEW100 BKN200 BKN250 25/23 A3004 RMK AO2 PRESRR SLP170 OCNL LTGICCC DSNT NE-E CB DSNT NE-E T02500228
KSAV 110253Z 00000KT 10SM FEW029 FEW055 SCT100 BKN200 BKN250 26/22 A3000 RMK AO2 SLP159 CONS LTGICCCCA DSNT E AND SE-S CB DSNT E AND SE-S T02610217 58006
KSAV 110153Z 34005KT 10SM FEW029 FEW055 SCT100 BKN180 BKN250 27/22 A3001 RMK AO2 SLP162 OCNL LTGICCC DSNT E CB DSNT E T02720222
KSAV 110053Z 27007KT 10SM FEW055 FEW065 SCT100 BKN180 OVC250 27/22 A3003 RMK AO2 LTG DSNT NE SLP168 OCNL LTGICCC NE CB DSNT NE AND NW T02670217
KSAV 102353Z 27006KT 10SM FEW055 SCT065 SCT100 BKN200 28/22 A3002 RMK AO2 LTG DSNT NE AND NW SLP165 CB DSNT W AND NW AND N T02780222 10344 20278 53010
KSAV 102328Z 24008KT 10SM SCT055CB BKN065 BKN200 29/22 A3000 RMK AO2 CB NW AND NE AND S T02890222
KSAV 102253Z 21011KT 10SM VCTS SCT055CB BKN065 BKN200 29/22 A2999 RMK AO2 PK WND 21026/2224 LTG DSNT NW TSE28 SLP155 CB NW AND NE AND S T02940217
KSAV 102249Z 22011KT 10SM SCT055CB BKN065 BKN200 29/22 A3000 RMK AO2 PK WND 21026/2224 LTG DSNT NW TSE28 CB NW AND NE AND S
KSAV 102234Z 21021G25KT 10SM VCTS BKN055CB BKN065 BKN200 30/22 A3000 RMK AO2 PK WND 21026/2224 LTG DSNT S AND NW TSE28 CB NW-NE AND SE-S AND DSNT S-SW T03000222
KSAV 102153Z 22009KT 10SM SCT055 SCT065 SCT200 33/24 A2999 RMK AO2 LTG DSNT S-W SLP154 CB DSNT S-SW T03330239
KSAV 102053Z 21007KT 180V240 10SM SCT044 SCT055 SCT200 34/22 A2999 RMK AO2 SLP155 T03440222 56030
KSAV 101953Z 18005KT 10SM SCT038 SCT050 SCT180 34/24 A3001 RMK AO2 SLP160 T03390239
KSAV 101853Z 21004KT 10SM SCT030 SCT050 SCT180 33/24 A3004 RMK AO2 SLP172 CB DSNT SW T03280239
KSAV 101753Z VRB05KT 10SM SCT025 SCT180 BKN250 33/25 A3008 RMK AO2 SLP185 T03280250 10328 20244 58016